Nearby METAR Reports

 

KDAA - Fort Belvoir/Dav, Virginia, USA
Distance from station: SE 9mi, 15km
Updated: Tue, 03-Aug-2021 1:56pm EDT
Mostly cloudy
Mostly cloudy
 Wind from calm
Wind: Calm
Temperature: 81°F , 27°C
Heat Index: 82°F , 28°C
Dew Point: 61°F , 16°C
Humidity: 51%
Barometer: 30.08 inHg , 1018.6 hPa
Clouds: Mostly cloudy
Visibility: 10 miles , 16 km
Cloud details: Few Clouds 15000 ft
Mostly cloudy 21000 ft
2021/08/03 17:56 KDAA 031756Z AUTO 00000KT 10SM FEW150 BKN210 27/16 A3008 RMK AO2 SLP188 T02680155 10268 20182 58009 $
KIAD - Wash Dc/Dulles, Virginia, USA
Distance from station: NW 12mi, 19km
Updated: Tue, 03-Aug-2021 1:52pm EDT
Mostly cloudy
Mostly cloudy
 Wind from varies
Wind: varies 3 mph , 6 km/h
Temperature: 79°F , 26°C
Dew Point: 61°F , 16°C
Humidity: 54%
Barometer: 30.09 inHg , 1019 hPa
Clouds: Mostly cloudy
Visibility: 10 miles , 16 km
Cloud details: Few Clouds 4400 ft
Partly cloudy 17000 ft
Mostly cloudy 23000 ft
2021/08/03 17:52 KIAD 031752Z VRB03KT 10SM FEW044 SCT170 BKN230 26/16 A3009 RMK AO2 SLP187 T02560156 10261 20183 58012
 
KHEF - Manassas Muni, Virginia, USA
Distance from station: WSW 14mi, 22km
Updated: Tue, 03-Aug-2021 1:56pm EDT
Mostly cloudy
Mostly cloudy
 Wind from SE
Wind: SE 8 mph , 13 km/h
Temperature: 79°F , 26°C
Dew Point: 61°F , 16°C
Humidity: 54%
Barometer: 30.09 inHg , 1019 hPa
Clouds: Mostly cloudy
Visibility: 10 miles , 16 km
Cloud details: Mostly cloudy 4200 ft
2021/08/03 17:56 KHEF 031756Z 14007KT 10SM BKN042 26/16 A3009 RMK AO2 SLP195 T02610161 10261 20183 56011
KDCA - Washington/Natl, Washington D.c., USA
Distance from station: ENE 14mi, 23km
Updated: Tue, 03-Aug-2021 1:52pm EDT
Overcast
Overcast
 Wind from SE
Wind: SE 7 mph , 11 km/h
Temperature: 81°F , 27°C
Heat Index: 81°F , 27°C
Dew Point: 57°F , 14°C
Humidity: 45%
Barometer: 30.09 inHg , 1019 hPa
Clouds: Overcast
Visibility: 10 miles , 16 km
Cloud details: Few Clouds 4500 ft
Mostly cloudy 20000 ft
Overcast 25000 ft
2021/08/03 17:52 KDCA 031752Z 13006KT 10SM FEW045 BKN200 OVC250 27/14 A3009 RMK AO2 SLP188 T02720144 10272 20211 58010
 
KNYG - Quantico Mcaf, Virginia, USA
Distance from station: S 21mi, 34km
Updated: Tue, 03-Aug-2021 1:56pm EDT
Few Clouds
Few Clouds
 Wind from SE
Wind: SE 6 mph , 9 km/h
Temperature: 81°F , 27°C
Heat Index: 82°F , 28°C
Dew Point: 61°F , 16°C
Humidity: 51%
Barometer: 30.09 inHg , 1019 hPa
Clouds: Few Clouds
Visibility: 10 miles , 16 km
Cloud details: Few Clouds 4200 ft
2021/08/03 17:56 KNYG 031756Z 13005KT 10SM FEW042 27/16 A3009 RMK AO2 SLP190 6//// T02670161 10267 20200 58009 PNO
KADW - Andrews Afb, Maryland, USA
Distance from station: E 23mi, 37km
Updated: Tue, 03-Aug-2021 2:09pm EDT
Mostly cloudy
Mostly cloudy
 Wind from E
Wind: E 6 mph , 9 km/h
Temperature: 77°F , 25°C
Dew Point: 61°F , 16°C
Humidity: 57%
Barometer: 30.07 inHg , 1018.3 hPa
Clouds: Mostly cloudy
Visibility: 10 miles , 16 km
Cloud details: Few Clouds 12000 ft
Few Clouds 15000 ft
Partly cloudy 18000 ft
Mostly cloudy 20000 ft
2021/08/03 18:09 KADW 031809Z AUTO 08005KT 10SM FEW120 FEW150 SCT180 BKN200 25/16 A3007 RMK AO2 DZB1759E09DZB09 SLP188 $
 
KJYO - Leesburg/Godfrey, Virginia, USA
Distance from station: NW 23mi, 37km
Updated: Tue, 03-Aug-2021 2:35pm EDT
Partly cloudy
Partly cloudy
 Wind from SE
Wind: SE 3 mph , 6 km/h
Temperature: 77°F , 25°C
Dew Point: 55°F , 13°C
Humidity: 47%
Barometer: 30.10 inHg , 1019.3 hPa
Clouds: Partly cloudy
Visibility: 10 miles , 16 km
Cloud details: Partly cloudy 4900 ft
2021/08/03 18:35 KJYO 031835Z AUTO 14003KT 10SM SCT049 25/13 A3010 RMK AO2
KCGS - College Park, Maryland, USA
Distance from station: ENE 24mi, 38km
Updated: Tue, 03-Aug-2021 1:35pm EDT
Clear
Clear
 Wind from NE
Wind: NE 7 mph , 11 km/h
Temperature: 77°F , 25°C
Dew Point: 57°F , 14°C
Humidity: 51%
Barometer: 30.09 inHg , 1019 hPa
Clouds: Clear
Visibility: 10 miles , 16 km
2021/08/03 17:35 KCGS 031735Z AUTO 05006KT 10SM CLR 25/14 A3009 RMK AO1 T02510135
 
KGAI - Gaithersburg, Maryland, USA
Distance from station: NNE 26mi, 41km
Updated: Tue, 03-Aug-2021 1:56pm EDT
Clear
Clear
 Wind from varies
Wind: varies 3 mph , 6 km/h
Temperature: 77°F , 25°C
Dew Point: 61°F , 16°C
Humidity: 57%
Barometer: 30.11 inHg , 1019.6 hPa
Clouds: Clear
Visibility: 10 miles , 16 km
2021/08/03 17:56 KGAI 031756Z AUTO VRB03KT 10SM CLR 25/16 A3011 RMK AO2 SLP206 6//// T02500156 10256 20172 58011 PNO $
KHWY - Warrenton, Virginia, USA
Distance from station: SW 28mi, 44km
Updated: Tue, 03-Aug-2021 2:15pm EDT
Clear
Clear
 Wind from SE
Wind: SE 5 mph , 7 km/h
Temperature: 79°F , 26°C
Dew Point: 57°F , 14°C
Humidity: 48%
Barometer: 30.09 inHg , 1019 hPa
Clouds: Clear
Visibility: 10 miles , 16 km
2021/08/03 18:15 KHWY 031815Z AUTO 14004KT 10SM CLR 26/14 A3009 RMK AO2 T02590143
 
KRMN - Stafford Regnl, Virginia, USA
Distance from station: SSW 29mi, 47km
Updated: Tue, 03-Aug-2021 2:15pm EDT
Mostly cloudy
Mostly cloudy
 Wind from ESE
Wind: ESE 7 mph , 11 km/h
Temperature: 79°F , 26°C
Dew Point: 59°F , 15°C
Humidity: 51%
Barometer: 30.12 inHg , 1020 hPa
Clouds: Mostly cloudy
Visibility: 10 miles , 16 km
Cloud details: Mostly cloudy 3900 ft
2021/08/03 18:15 KRMN 031815Z AUTO 11006KT 10SM BKN039 26/15 A3012 RMK AO2 T02640145
KFME - Fort Meade, Maryland, USA
Distance from station: NE 34mi, 55km
Updated: Tue, 03-Aug-2021 1:35pm EDT
Clear
Clear
 Wind from ESE
Wind: ESE 6 mph , 9 km/h
Temperature: 77°F , 25°C
Dew Point: 61°F , 16°C
Humidity: 57%
Barometer: 30.11 inHg , 1019.6 hPa
Clouds: Clear
Visibility: 10 miles , 16 km
2021/08/03 17:35 KFME 031735Z AUTO 11005KT 10SM CLR 25/16 A3011 RMK AO1
 
KCJR - Culpeper, Virginia, USA
Distance from station: WSW 36mi, 58km
Updated: Tue, 03-Aug-2021 2:15pm EDT
Partly cloudy
Partly cloudy
 Wind from SE
Wind: SE 5 mph , 7 km/h
Temperature: 81°F , 27°C
Heat Index: 81°F , 27°C
Dew Point: 57°F , 14°C
Humidity: 45%
Barometer: 30.09 inHg , 1019 hPa
Clouds: Partly cloudy
Visibility: 10 miles , 16 km
Cloud details: Partly cloudy 4400 ft
2021/08/03 18:15 KCJR 031815Z AUTO 14004KT 10SM SCT044 27/14 A3009 RMK AO2 T02680136
KEZF - Fredericksb/Shan, Virginia, USA
Distance from station: SSW 38mi, 62km
Updated: Tue, 03-Aug-2021 2:15pm EDT
Partly cloudy
Partly cloudy
 Wind from E
Wind: E 8 mph , 13 km/h
Temperature: 79°F , 26°C
Dew Point: 57°F , 14°C
Humidity: 48%
Barometer: 30.06 inHg , 1017.9 hPa
Clouds: Partly cloudy
Visibility: 10 miles , 16 km
Cloud details: Partly cloudy 4100 ft
2021/08/03 18:15 KEZF 031815Z AUTO 08007KT 10SM SCT041 26/14 A3006 RMK AO2 T02620139
 
KBWI - Balto/Wash Intl, Maryland, USA
Distance from station: NE 41mi, 66km
Updated: Tue, 03-Aug-2021 1:54pm EDT
Clear
Clear
 Wind from NE
Wind: NE 8 mph , 13 km/h
Temperature: 81°F , 27°C
Heat Index: 81°F , 27°C
Dew Point: 55°F , 13°C
Humidity: 42%
Barometer: 30.08 inHg , 1018.6 hPa
Clouds: Clear
Visibility: 10 miles , 16 km
2021/08/03 17:54 KBWI 031754Z 05007KT 10SM CLR 27/13 A3008 RMK AO2 SLP185 T02670133 10267 20200 58009
KFDK - Frederick, Maryland, USA
Distance from station: N 42mi, 68km
Updated: Tue, 03-Aug-2021 1:47pm EDT
Clear
Clear
 Wind from calm
Wind: Calm
Temperature: 75°F , 24°C
Dew Point: 61°F , 16°C
Humidity: 61%
Barometer: 30.10 inHg , 1019.3 hPa
Clouds: Clear
Visibility: 10 miles , 16 km
2021/08/03 17:47 KFDK 031747Z 00000KT 10SM CLR 24/16 A3010
 
KNAK - Annapolis/Naval, Maryland, USA
Distance from station: ENE 45mi, 73km
Updated: Tue, 03-Aug-2021 1:54pm EDT
Clear
Clear
 Wind from varies
Wind: varies 7 mph , 11 km/h
Temperature: 77°F , 25°C
Dew Point: 61°F , 16°C
Humidity: 57%
Barometer: 30.08 inHg , 1018.6 hPa
Clouds: Clear
Visibility: 10 miles , 16 km
2021/08/03 17:54 KNAK 031754Z AUTO VRB06KT 10SM CLR 25/16 A3008 RMK AO2 SLP189 T02500156 10250 20217 58008